createdAt,value
2024-05-09T00:00:51.061Z,14.00
2024-05-09T00:03:41.052Z,14.10
2024-05-09T00:06:28.148Z,14.12
2024-05-09T00:09:15.296Z,13.95
2024-05-09T00:12:02.511Z,13.95
2024-05-09T00:14:49.689Z,13.95
2024-05-09T00:17:36.823Z,14.00
2024-05-09T00:20:28.625Z,13.93
2024-05-09T00:23:23.533Z,13.89
2024-05-09T00:26:10.804Z,13.81
2024-05-09T00:28:58.014Z,13.82
2024-05-09T00:31:45.153Z,13.86
2024-05-09T00:34:32.319Z,13.72
2024-05-09T00:37:19.615Z,13.66
2024-05-09T00:40:09.614Z,13.75
2024-05-09T00:43:02.297Z,13.67
2024-05-09T00:45:49.468Z,13.64
2024-05-09T00:48:36.814Z,13.69
2024-05-09T00:51:24.201Z,13.67
2024-05-09T00:54:11.393Z,13.55
2024-05-09T00:56:58.884Z,13.58
2024-05-09T00:59:46.843Z,13.56
2024-05-09T01:02:34.048Z,13.58
2024-05-09T01:05:21.233Z,13.56
2024-05-09T01:08:09.831Z,13.52
2024-05-09T01:10:57.278Z,13.49
2024-05-09T01:13:47.517Z,13.49
2024-05-09T01:16:34.816Z,13.44
2024-05-09T01:19:29.660Z,13.39
2024-05-09T01:22:16.989Z,13.42
2024-05-09T01:25:04.344Z,13.39
2024-05-09T01:27:51.376Z,13.37
2024-05-09T01:30:38.880Z,13.32
2024-05-09T01:33:29.284Z,13.25
2024-05-09T01:36:18.690Z,13.25
2024-05-09T01:39:05.956Z,13.30
2024-05-09T01:41:53.108Z,13.24
2024-05-09T01:44:40.312Z,13.19
2024-05-09T01:47:27.568Z,13.18
2024-05-09T01:53:03.481Z,13.10
2024-05-09T01:55:50.627Z,13.14
2024-05-09T01:58:37.772Z,13.08
2024-05-09T02:01:25.016Z,13.01
2024-05-09T02:04:12.385Z,13.06
2024-05-09T02:07:01.844Z,12.97
2024-05-09T02:09:51.919Z,13.06
2024-05-09T02:12:39.871Z,12.93
2024-05-09T02:15:26.966Z,12.97
2024-05-09T02:18:14.463Z,12.88
2024-05-09T02:21:01.816Z,12.92
2024-05-09T02:23:49.094Z,12.96
2024-05-09T02:26:36.207Z,12.94
2024-05-09T02:29:23.369Z,12.89
2024-05-09T02:32:10.569Z,12.87
2024-05-09T02:34:57.833Z,12.82
2024-05-09T02:37:44.949Z,12.82
2024-05-09T02:40:37.228Z,12.82
2024-05-09T02:43:28.650Z,12.74
2024-05-09T02:46:15.776Z,12.65
2024-05-09T02:49:03.024Z,12.60
2024-05-09T02:51:50.104Z,12.58
2024-05-09T02:54:37.197Z,12.45
2024-05-09T02:57:24.289Z,12.38
2024-05-09T03:00:18.523Z,12.31
2024-05-09T03:03:14.919Z,12.35
2024-05-09T03:06:02.876Z,12.16
2024-05-09T03:08:49.940Z,12.28
2024-05-09T03:12:02.474Z,12.19
2024-05-09T03:14:50.638Z,12.22
2024-05-09T03:17:41.235Z,12.11
2024-05-09T03:20:33.964Z,11.99
2024-05-09T03:23:22.929Z,11.92
2024-05-09T03:26:17.486Z,11.90
2024-05-09T03:29:04.895Z,11.91
2024-05-09T03:31:52.234Z,11.95
2024-05-09T03:34:39.622Z,11.88
2024-05-09T03:37:26.672Z,11.79
2024-05-09T03:40:20.489Z,11.72
2024-05-09T03:43:10.660Z,11.63
2024-05-09T03:45:57.999Z,11.63
2024-05-09T03:48:45.256Z,11.57
2024-05-09T03:51:32.462Z,11.64
2024-05-09T03:54:19.535Z,11.62
2024-05-09T03:57:06.745Z,11.58
2024-05-09T03:59:53.862Z,11.57
2024-05-09T04:02:43.328Z,11.57
2024-05-09T04:05:31.136Z,11.49
2024-05-09T04:08:18.500Z,11.46
2024-05-09T04:11:06.872Z,11.50
2024-05-09T04:13:54.080Z,11.48
2024-05-09T04:16:41.288Z,11.49
2024-05-09T04:19:28.677Z,11.48
2024-05-09T04:22:15.917Z,11.47
2024-05-09T04:25:03.007Z,11.51
2024-05-09T04:27:50.084Z,11.50
2024-05-09T04:30:40.045Z,11.47
2024-05-09T04:33:29.828Z,11.50
2024-05-09T04:36:17.068Z,11.56
2024-05-09T04:39:04.510Z,11.56
2024-05-09T04:41:51.539Z,11.62
2024-05-09T04:44:38.679Z,11.69
2024-05-09T04:47:26.059Z,11.61
2024-05-09T04:50:20.796Z,11.68
2024-05-09T04:53:16.444Z,11.69
2024-05-09T04:56:03.925Z,11.76
2024-05-09T04:58:51.160Z,11.80
2024-05-09T05:01:38.325Z,11.88
2024-05-09T05:04:25.589Z,11.86
2024-05-09T05:07:12.672Z,11.95
2024-05-09T05:09:59.696Z,12.12
2024-05-09T05:13:05.326Z,12.24
2024-05-09T05:15:56.461Z,12.27
2024-05-09T05:18:44.740Z,12.36
2024-05-09T05:21:31.985Z,12.48
2024-05-09T05:24:19.055Z,12.66
2024-05-09T05:27:06.196Z,12.87
2024-05-09T05:29:53.306Z,13.10
2024-05-09T05:32:40.494Z,13.29
2024-05-09T05:35:27.994Z,13.43
2024-05-09T05:38:15.266Z,13.58
2024-05-09T05:41:02.576Z,13.79
2024-05-09T05:43:49.700Z,13.96
2024-05-09T05:46:36.723Z,14.11
2024-05-09T05:49:24.003Z,14.39
2024-05-09T05:52:12.399Z,14.58
2024-05-09T05:54:59.462Z,14.78
2024-05-09T05:57:46.536Z,14.94
2024-05-09T06:00:38.518Z,15.15
2024-05-09T06:03:29.363Z,15.31
2024-05-09T06:06:16.654Z,15.51
2024-05-09T06:09:03.906Z,15.69
2024-05-09T06:11:51.183Z,15.78
2024-05-09T06:14:38.513Z,15.77
2024-05-09T06:17:25.990Z,15.63
2024-05-09T06:20:20.442Z,15.66
2024-05-09T06:23:12.503Z,16.00
2024-05-09T06:26:00.004Z,15.98
2024-05-09T06:28:47.135Z,15.94
2024-05-09T06:31:42.524Z,16.28
2024-05-09T06:34:29.898Z,16.41
2024-05-09T06:37:16.981Z,16.25
2024-05-09T06:40:05.573Z,16.59
2024-05-09T06:42:55.978Z,16.69
2024-05-09T06:45:43.147Z,17.03
2024-05-09T06:48:30.433Z,16.97
2024-05-09T06:51:17.645Z,17.22
2024-05-09T06:54:07.553Z,17.59
2024-05-09T06:56:54.629Z,17.68
2024-05-09T06:59:41.734Z,17.86
2024-05-09T07:02:28.955Z,18.04
2024-05-09T07:05:16.491Z,18.34
2024-05-09T07:08:04.814Z,18.49
2024-05-09T07:10:52.086Z,18.49
2024-05-09T07:13:39.348Z,18.87
2024-05-09T07:16:26.467Z,18.84
2024-05-09T07:19:13.758Z,19.32
2024-05-09T07:22:00.911Z,19.45
2024-05-09T07:24:47.993Z,19.10
2024-05-09T07:27:35.161Z,18.86
2024-05-09T07:30:27.747Z,19.33
2024-05-09T07:33:22.920Z,19.71
2024-05-09T07:36:11.144Z,20.08
2024-05-09T07:38:58.818Z,20.29
2024-05-09T07:41:45.978Z,19.89
2024-05-09T07:44:33.568Z,20.34
2024-05-09T07:48:32.061Z,20.41
2024-05-09T07:53:38.314Z,20.25
2024-05-09T07:56:26.047Z,19.46
2024-05-09T07:59:13.618Z,19.79
2024-05-09T08:02:00.908Z,19.81
2024-05-09T08:04:48.202Z,20.05
2024-05-09T08:07:37.173Z,19.81
2024-05-09T08:10:28.569Z,20.11
2024-05-09T08:13:16.360Z,20.03
2024-05-09T08:16:03.847Z,19.93
2024-05-09T08:18:51.328Z,19.90
2024-05-09T08:21:38.578Z,19.79
2024-05-09T08:24:25.655Z,19.82
2024-05-09T08:27:12.883Z,19.49
2024-05-09T08:29:59.978Z,19.84
2024-05-09T08:32:48.337Z,20.22
2024-05-09T08:35:36.001Z,20.04
2024-05-09T08:38:23.044Z,20.38
2024-05-09T08:41:14.036Z,20.36
2024-05-09T08:44:01.631Z,20.09
2024-05-09T08:46:51.644Z,20.20
2024-05-09T08:49:41.350Z,20.12
2024-05-09T08:52:29.088Z,20.16
2024-05-09T08:55:16.282Z,19.74
2024-05-09T08:58:04.311Z,19.84
2024-05-09T09:00:51.585Z,20.06
2024-05-09T09:03:39.216Z,19.55
2024-05-09T09:06:27.374Z,19.66
2024-05-09T09:09:14.601Z,19.84
2024-05-09T09:12:01.690Z,19.87
2024-05-09T09:14:48.811Z,19.88
2024-05-09T09:17:39.246Z,19.77
2024-05-09T09:20:34.151Z,20.15
2024-05-09T09:23:24.083Z,19.93
2024-05-09T09:26:15.989Z,19.70
2024-05-09T09:29:03.183Z,19.79
2024-05-09T09:31:59.720Z,19.98
2024-05-09T09:34:47.901Z,20.29
2024-05-09T09:37:37.944Z,20.07
2024-05-09T09:40:32.259Z,20.27
2024-05-09T09:43:22.867Z,20.71
2024-05-09T09:46:12.994Z,20.78
2024-05-09T09:49:00.851Z,20.19
2024-05-09T09:51:49.431Z,20.43
2024-05-09T09:54:36.662Z,20.62
2024-05-09T09:57:24.984Z,20.62
2024-05-09T10:00:17.320Z,20.56
2024-05-09T10:03:07.926Z,20.69
2024-05-09T10:05:55.775Z,20.85
2024-05-09T10:08:43.370Z,20.57
2024-05-09T10:11:31.687Z,20.77
2024-05-09T10:14:22.683Z,20.66
2024-05-09T10:17:09.781Z,21.42
2024-05-09T10:20:17.901Z,20.95
2024-05-09T10:23:31.209Z,21.29
2024-05-09T10:26:18.309Z,21.22
2024-05-09T10:29:16.558Z,21.22
2024-05-09T10:32:03.656Z,20.95
2024-05-09T10:35:07.284Z,21.10
2024-05-09T10:37:56.283Z,20.73
2024-05-09T10:40:45.652Z,21.34
2024-05-09T10:43:33.576Z,21.42
2024-05-09T10:46:20.757Z,21.27
2024-05-09T10:49:08.716Z,21.19
2024-05-09T10:51:55.970Z,21.70
2024-05-09T10:54:43.170Z,21.69
2024-05-09T10:57:38.896Z,21.05
2024-05-09T11:00:36.530Z,20.56
2024-05-09T11:03:25.111Z,20.99
2024-05-09T11:06:12.368Z,21.47
2024-05-09T11:08:59.465Z,21.67
2024-05-09T11:11:46.667Z,21.86
2024-05-09T11:14:34.197Z,21.46
2024-05-09T11:17:21.501Z,21.09
2024-05-09T11:20:16.608Z,21.15
2024-05-09T11:23:07.356Z,21.65
2024-05-09T11:25:56.430Z,20.97
2024-05-09T11:28:46.646Z,21.29
2024-05-09T11:31:44.626Z,21.14
2024-05-09T11:34:31.988Z,21.47
2024-05-09T11:37:19.693Z,21.55
2024-05-09T11:40:13.710Z,21.84
2024-05-09T11:43:08.036Z,21.32
2024-05-09T11:45:57.581Z,20.93
2024-05-09T11:48:45.320Z,21.31
2024-05-09T11:51:32.420Z,21.40
2024-05-09T11:54:19.479Z,21.70
2024-05-09T11:57:06.665Z,21.78
2024-05-09T11:59:53.775Z,22.06
2024-05-09T12:02:41.512Z,21.94
2024-05-09T12:05:28.988Z,21.72
2024-05-09T12:08:16.185Z,21.68
2024-05-09T12:11:03.817Z,21.94
2024-05-09T12:13:50.929Z,22.21
2024-05-09T12:16:38.094Z,21.95
2024-05-09T12:19:25.486Z,22.07
2024-05-09T12:22:12.746Z,21.96
2024-05-09T12:25:00.048Z,21.88
2024-05-09T12:27:47.363Z,22.00
2024-05-09T12:30:38.658Z,21.47
2024-05-09T12:33:27.754Z,22.05
2024-05-09T12:36:14.932Z,22.09
2024-05-09T12:39:03.092Z,22.39
2024-05-09T12:41:50.162Z,22.36
2024-05-09T12:44:37.203Z,22.20
2024-05-09T12:47:24.453Z,22.13
2024-05-09T12:50:21.837Z,21.43
2024-05-09T12:53:12.351Z,21.74
2024-05-09T12:56:02.364Z,21.61
2024-05-09T12:58:51.591Z,21.63
2024-05-09T13:01:38.662Z,21.48
2024-05-09T13:04:26.010Z,21.66
2024-05-09T13:07:13.336Z,21.50
2024-05-09T13:10:00.680Z,21.66
2024-05-09T13:12:47.893Z,21.57
2024-05-09T13:15:35.159Z,21.35
2024-05-09T13:18:22.324Z,20.78
2024-05-09T13:21:09.518Z,21.40
2024-05-09T13:23:56.884Z,21.69
2024-05-09T13:26:45.453Z,21.66
2024-05-09T13:29:32.523Z,21.64
2024-05-09T13:32:19.743Z,21.34
2024-05-09T13:35:06.912Z,21.65
2024-05-09T13:37:54.229Z,21.74
2024-05-09T13:40:41.869Z,21.55
2024-05-09T13:43:29.236Z,21.76
2024-05-09T13:46:16.482Z,21.45
2024-05-09T13:49:03.897Z,21.54
2024-05-09T13:51:51.106Z,21.41
2024-05-09T13:54:38.276Z,21.45
2024-05-09T13:57:25.904Z,21.55
2024-05-09T14:00:27.014Z,21.76
2024-05-09T14:03:21.078Z,21.73
2024-05-09T14:06:11.276Z,21.78
2024-05-09T14:08:59.994Z,21.92
2024-05-09T14:11:47.105Z,21.96
2024-05-09T14:14:34.304Z,21.85
2024-05-09T14:17:21.567Z,22.12
2024-05-09T14:20:13.961Z,22.43
2024-05-09T14:23:01.337Z,22.13
2024-05-09T14:25:52.098Z,22.63
2024-05-09T14:28:39.614Z,22.83
2024-05-09T14:31:26.835Z,22.40
2024-05-09T14:34:14.346Z,22.46
2024-05-09T14:37:01.674Z,22.41
2024-05-09T14:39:48.799Z,22.18
2024-05-09T14:42:35.969Z,22.10
2024-05-09T14:45:23.152Z,22.17
2024-05-09T14:48:11.064Z,22.55
2024-05-09T14:50:58.366Z,22.49
2024-05-09T14:53:45.571Z,22.66
2024-05-09T14:56:33.519Z,22.69
2024-05-09T14:59:20.727Z,22.56
2024-05-09T15:02:08.157Z,22.29
2024-05-09T15:04:55.659Z,22.49
2024-05-09T15:07:46.022Z,22.96
2024-05-09T15:10:35.832Z,23.14
2024-05-09T15:13:25.026Z,23.30
2024-05-09T15:16:12.391Z,23.23
2024-05-09T15:18:59.856Z,23.04
2024-05-09T15:21:47.015Z,23.00
2024-05-09T15:24:34.135Z,23.04
2024-05-09T15:27:21.463Z,22.72
2024-05-09T15:30:10.810Z,22.98
2024-05-09T15:32:58.204Z,23.06
2024-05-09T15:35:46.863Z,22.54
2024-05-09T15:38:34.467Z,22.70
2024-05-09T15:41:21.929Z,22.24
2024-05-09T15:44:09.048Z,22.53
2024-05-09T15:46:56.471Z,22.67
2024-05-09T15:49:43.701Z,22.66
2024-05-09T15:52:30.841Z,22.72
2024-05-09T15:55:18.026Z,22.80
2024-05-09T15:58:06.181Z,22.36
2024-05-09T16:00:54.105Z,22.71
2024-05-09T16:03:41.412Z,22.92
2024-05-09T16:06:28.749Z,23.00
2024-05-09T16:09:15.928Z,22.90
2024-05-09T16:12:03.032Z,22.83
2024-05-09T16:14:50.832Z,22.95
2024-05-09T16:17:38.023Z,22.87
2024-05-09T16:20:34.924Z,22.83
2024-05-09T16:23:27.421Z,22.89
2024-05-09T16:26:14.574Z,22.67
2024-05-09T16:29:01.742Z,22.33
2024-05-09T16:31:48.784Z,22.27
2024-05-09T16:34:35.888Z,22.09
2024-05-09T16:37:24.683Z,22.05
2024-05-09T16:40:22.018Z,22.04
2024-05-09T16:43:17.386Z,21.89
2024-05-09T16:46:05.721Z,21.78
2024-05-09T16:48:52.953Z,21.76
2024-05-09T16:51:40.180Z,21.79
2024-05-09T16:54:27.263Z,21.80
2024-05-09T16:57:14.451Z,21.45
2024-05-09T17:00:01.581Z,21.06
2024-05-09T17:02:48.707Z,21.02
2024-05-09T17:05:36.484Z,20.95
2024-05-09T17:08:24.043Z,20.79
2024-05-09T17:11:13.207Z,20.73
2024-05-09T17:14:00.407Z,20.62
2024-05-09T17:16:47.694Z,20.65
2024-05-09T17:19:34.814Z,20.44
2024-05-09T17:22:22.228Z,20.29
2024-05-09T17:25:09.343Z,20.43
2024-05-09T17:27:56.875Z,20.44
2024-05-09T17:30:44.306Z,20.33
2024-05-09T17:33:31.694Z,20.17
2024-05-09T17:36:19.949Z,20.14
2024-05-09T17:39:07.076Z,20.17
2024-05-09T17:41:54.118Z,20.14
2024-05-09T17:44:41.241Z,19.79
2024-05-09T17:47:28.540Z,19.80
2024-05-09T17:50:23.759Z,19.89
2024-05-09T17:53:14.679Z,19.94
2024-05-09T17:56:03.816Z,19.99
2024-05-09T17:58:50.989Z,19.87
2024-05-09T18:01:38.263Z,20.01
2024-05-09T18:04:25.537Z,19.99
2024-05-09T18:07:12.869Z,19.85
2024-05-09T18:10:00.241Z,20.01
2024-05-09T18:12:47.511Z,19.95
2024-05-09T18:15:35.049Z,19.99
2024-05-09T18:18:23.140Z,20.00
2024-05-09T18:21:10.333Z,19.93
2024-05-09T18:24:00.028Z,19.90
2024-05-09T18:26:47.454Z,19.88
2024-05-09T18:29:34.597Z,19.95
2024-05-09T18:32:21.750Z,19.81
2024-05-09T18:35:09.127Z,19.66
2024-05-09T18:37:56.426Z,19.53
2024-05-09T18:40:46.226Z,19.59
2024-05-09T18:43:42.197Z,19.59
2024-05-09T18:46:32.602Z,19.46
2024-05-09T18:49:19.815Z,19.25
2024-05-09T18:52:07.132Z,19.35
2024-05-09T18:54:54.227Z,19.27
2024-05-09T18:57:41.607Z,19.31
2024-05-09T19:00:35.395Z,19.13
2024-05-09T19:03:25.965Z,19.20
2024-05-09T19:06:13.900Z,19.18
2024-05-09T19:09:01.063Z,19.04
2024-05-09T19:11:48.272Z,18.97
2024-05-09T19:14:35.371Z,18.97
2024-05-09T19:17:22.776Z,18.98
2024-05-09T19:20:20.513Z,18.72
2024-05-09T19:23:15.275Z,18.72
2024-05-09T19:26:03.261Z,18.64
2024-05-09T19:28:52.066Z,18.70
2024-05-09T19:31:39.174Z,18.70
2024-05-09T19:34:26.326Z,18.55
2024-05-09T19:37:13.651Z,18.50
2024-05-09T19:40:01.016Z,18.57
2024-05-09T19:42:48.376Z,18.44
2024-05-09T19:45:36.553Z,18.38
2024-05-09T19:48:24.238Z,18.20
2024-05-09T19:51:11.403Z,18.24
2024-05-09T19:53:58.555Z,18.28
2024-05-09T19:56:45.709Z,18.22
2024-05-09T19:59:33.030Z,18.06
2024-05-09T20:02:20.419Z,18.12
2024-05-09T20:05:07.675Z,18.16
2024-05-09T20:07:54.893Z,18.14
2024-05-09T20:10:42.150Z,18.05
2024-05-09T20:13:29.445Z,17.97
2024-05-09T20:16:16.902Z,17.82
2024-05-09T20:19:04.334Z,17.77
2024-05-09T20:21:51.648Z,17.84
2024-05-09T20:24:38.796Z,17.79
2024-05-09T20:27:26.067Z,17.66
2024-05-09T20:30:20.885Z,17.68
2024-05-09T20:33:14.198Z,17.63
2024-05-09T20:36:02.487Z,17.65
2024-05-09T20:38:49.777Z,17.55
2024-05-09T20:41:42.770Z,17.56
2024-05-09T20:44:29.836Z,17.42
2024-05-09T20:47:18.717Z,17.50
2024-05-09T20:50:11.430Z,17.37
2024-05-09T20:53:03.956Z,17.33
2024-05-09T20:55:51.212Z,17.33
2024-05-09T20:58:38.290Z,17.34
2024-05-09T21:01:25.497Z,17.16
2024-05-09T21:04:12.941Z,17.19
2024-05-09T21:07:00.353Z,17.10
2024-05-09T21:09:47.878Z,17.20
2024-05-09T21:12:35.082Z,17.22
2024-05-09T21:15:22.147Z,17.22
2024-05-09T21:18:09.408Z,17.14
2024-05-09T21:20:56.654Z,17.13
2024-05-09T21:23:44.319Z,17.03
2024-05-09T21:26:31.436Z,17.04
2024-05-09T21:29:18.581Z,17.13
2024-05-09T21:32:05.932Z,17.08
2024-05-09T21:34:53.165Z,17.09
2024-05-09T21:37:40.309Z,17.01
2024-05-09T21:40:33.946Z,16.94
2024-05-09T21:43:23.005Z,16.87
2024-05-09T21:46:10.316Z,16.86
2024-05-09T21:48:58.246Z,16.74
2024-05-09T21:51:45.394Z,16.83
2024-05-09T21:54:32.498Z,16.94
2024-05-09T21:57:19.604Z,16.81
2024-05-09T22:00:20.367Z,16.78
2024-05-09T22:03:12.897Z,16.73
2024-05-09T22:06:00.641Z,16.69
2024-05-09T22:08:47.757Z,16.71
2024-05-09T22:11:34.945Z,16.71
2024-05-09T22:14:22.112Z,16.74
2024-05-09T22:17:09.356Z,16.69
2024-05-09T22:19:56.555Z,16.68
2024-05-09T22:22:43.612Z,16.65
2024-05-09T22:25:31.720Z,16.65
2024-05-09T22:28:19.772Z,16.59
2024-05-09T22:31:08.881Z,16.58
2024-05-09T22:33:58.808Z,16.63
2024-05-09T22:36:46.033Z,16.71
2024-05-09T22:39:33.294Z,16.77
2024-05-09T22:42:20.461Z,16.58
2024-05-09T22:45:07.861Z,16.68
2024-05-09T22:47:55.389Z,16.61
2024-05-09T22:50:42.607Z,16.64
2024-05-09T22:53:29.739Z,16.51
2024-05-09T22:56:26.471Z,16.45
2024-05-09T22:59:13.599Z,16.33
2024-05-09T23:02:01.006Z,16.53
2024-05-09T23:04:48.342Z,16.51
2024-05-09T23:07:35.456Z,16.47
2024-05-09T23:10:30.888Z,16.20
2024-05-09T23:13:22.340Z,16.05
2024-05-09T23:16:10.229Z,16.30
2024-05-09T23:18:57.615Z,16.43
2024-05-09T23:21:44.879Z,16.36
2024-05-09T23:24:32.599Z,16.14
2024-05-09T23:27:19.821Z,16.34
2024-05-09T23:30:12.019Z,15.96
2024-05-09T23:32:59.654Z,15.87
2024-05-09T23:35:47.116Z,15.69
2024-05-09T23:38:34.313Z,15.82
2024-05-09T23:41:21.420Z,15.71
2024-05-09T23:44:08.557Z,15.74
2024-05-09T23:46:55.831Z,15.68
2024-05-09T23:49:43.248Z,15.62
2024-05-09T23:52:30.424Z,15.63
2024-05-09T23:55:17.755Z,15.68
2024-05-09T23:58:05.807Z,15.57
